createdAt,value
2022-09-02T00:00:06.640Z,18.20
2022-09-02T00:02:37.030Z,18.20
2022-09-02T00:05:07.747Z,18.20
2022-09-02T00:07:36.831Z,18.20
2022-09-02T00:10:05.563Z,18.20
2022-09-02T00:12:33.872Z,18.20
2022-09-02T00:15:02.184Z,18.20
2022-09-02T00:17:30.527Z,18.20
2022-09-02T00:19:58.779Z,18.30
2022-09-02T00:22:28.904Z,18.30
2022-09-02T00:24:57.149Z,18.20
2022-09-02T00:27:25.468Z,18.20
2022-09-02T00:29:54.700Z,18.20
2022-09-02T00:32:22.953Z,18.20
2022-09-02T00:34:51.395Z,18.20
2022-09-02T00:37:19.737Z,18.20
2022-09-02T00:39:49.873Z,18.20
2022-09-02T00:42:18.376Z,18.20
2022-09-02T00:44:46.787Z,18.20
2022-09-02T00:47:15.994Z,18.20
2022-09-02T00:49:47.767Z,18.20
2022-09-02T00:52:20.725Z,18.10
2022-09-02T00:54:54.961Z,18.20
2022-09-02T00:57:26.369Z,18.20
2022-09-02T01:00:02.725Z,17.20
2022-09-02T01:02:31.924Z,18.20
2022-09-02T01:05:03.991Z,18.20
2022-09-02T01:07:35.280Z,18.20
2022-09-02T01:10:06.853Z,18.20
2022-09-02T01:12:35.981Z,18.20
2022-09-02T01:15:06.895Z,18.20
2022-09-02T01:17:35.413Z,18.20
2022-09-02T01:20:07.959Z,18.20
2022-09-02T01:22:37.632Z,18.20
2022-09-02T01:25:12.253Z,18.20
2022-09-02T01:27:40.851Z,18.20
2022-09-02T01:30:11.501Z,18.20
2022-09-02T01:32:39.985Z,18.30
2022-09-02T01:35:09.481Z,18.20
2022-09-02T01:37:39.814Z,18.20
2022-09-02T01:40:10.818Z,18.30
2022-09-02T01:42:40.252Z,18.30
2022-09-02T01:45:09.981Z,18.30
2022-09-02T01:47:38.747Z,18.30
2022-09-02T01:50:07.745Z,18.30
2022-09-02T01:52:36.243Z,18.30
2022-09-02T01:55:07.091Z,18.30
2022-09-02T01:57:36.231Z,18.30
2022-09-02T02:00:09.064Z,18.50
2022-09-02T02:02:40.902Z,18.40
2022-09-02T02:05:14.098Z,18.30
2022-09-02T02:07:43.327Z,18.30
2022-09-02T02:10:15.361Z,18.20
2022-09-02T02:15:16.881Z,18.40
2022-09-02T02:17:45.508Z,18.30
2022-09-02T02:20:16.014Z,18.20
2022-09-02T02:22:44.904Z,18.30
2022-09-02T02:25:16.055Z,18.30
2022-09-02T02:27:45.296Z,18.30
2022-09-02T02:30:15.589Z,18.20
2022-09-02T02:32:47.058Z,18.30
2022-09-02T02:35:20.158Z,18.30
2022-09-02T02:37:50.546Z,18.30
2022-09-02T02:40:23.534Z,18.20
2022-09-02T02:42:54.170Z,18.20
2022-09-02T02:45:25.540Z,18.10
2022-09-02T02:47:55.007Z,18.20
2022-09-02T02:50:25.846Z,18.10
2022-09-02T02:52:54.940Z,18.10
2022-09-02T02:55:26.890Z,18.00
2022-09-02T02:57:55.474Z,18.00
2022-09-02T03:00:28.178Z,18.00
2022-09-02T03:02:57.167Z,18.10
2022-09-02T03:05:26.492Z,18.00
2022-09-02T03:07:55.146Z,18.10
2022-09-02T03:10:27.041Z,18.10
2022-09-02T03:12:55.865Z,18.10
2022-09-02T03:15:24.364Z,18.10
2022-09-02T03:17:56.317Z,18.10
2022-09-02T03:20:26.047Z,18.10
2022-09-02T03:23:00.233Z,18.00
2022-09-02T03:25:35.541Z,18.10
2022-09-02T03:28:10.156Z,18.10
2022-09-02T03:30:41.178Z,18.10
2022-09-02T03:33:10.597Z,18.00
2022-09-02T03:35:41.176Z,18.00
2022-09-02T03:38:10.756Z,18.00
2022-09-02T03:40:41.982Z,18.00
2022-09-02T03:43:10.385Z,18.00
2022-09-02T03:45:41.858Z,18.00
2022-09-02T03:48:14.200Z,18.00
2022-09-02T03:50:47.159Z,17.90
2022-09-02T03:53:23.259Z,17.90
2022-09-02T03:55:59.413Z,17.90
2022-09-02T03:58:29.327Z,17.90
2022-09-02T04:00:59.750Z,17.90
2022-09-02T04:03:28.614Z,17.90
2022-09-02T04:05:56.940Z,17.90
2022-09-02T04:08:28.039Z,17.90
2022-09-02T04:11:06.992Z,17.80
2022-09-02T04:13:35.993Z,17.80
2022-09-02T04:16:10.539Z,17.80
2022-09-02T04:18:39.500Z,17.80
2022-09-02T04:21:08.106Z,17.90
2022-09-02T04:23:38.228Z,17.80
2022-09-02T04:26:10.571Z,17.80
2022-09-02T04:28:39.485Z,17.80
2022-09-02T04:31:09.801Z,17.80
2022-09-02T04:33:38.994Z,17.80
2022-09-02T04:36:11.690Z,17.80
2022-09-02T04:38:42.120Z,17.90
2022-09-02T04:41:15.678Z,17.90
2022-09-02T04:43:44.403Z,17.80
2022-09-02T04:46:15.912Z,17.90
2022-09-02T04:48:47.300Z,17.80
2022-09-02T04:51:19.215Z,17.80
2022-09-02T04:53:50.173Z,17.80
2022-09-02T04:56:25.139Z,17.80
2022-09-02T04:58:54.817Z,17.80
2022-09-02T05:01:27.336Z,17.90
2022-09-02T05:03:57.873Z,17.90
2022-09-02T05:06:30.360Z,17.90
2022-09-02T05:09:01.971Z,17.90
2022-09-02T05:11:36.410Z,17.90
2022-09-02T05:14:06.856Z,17.90
2022-09-02T05:16:40.121Z,17.90
2022-09-02T05:19:13.784Z,17.90
2022-09-02T05:21:47.713Z,17.90
2022-09-02T05:24:26.651Z,17.90
2022-09-02T05:26:58.867Z,17.90
2022-09-02T05:29:28.088Z,17.90
2022-09-02T05:31:58.272Z,17.90
2022-09-02T05:34:28.077Z,17.90
2022-09-02T05:36:59.988Z,17.80
2022-09-02T05:39:31.832Z,17.90
2022-09-02T05:42:02.381Z,17.90
2022-09-02T05:44:32.104Z,18.00
2022-09-02T05:47:01.764Z,18.00
2022-09-02T05:49:30.301Z,17.90
2022-09-02T05:52:10.196Z,18.00
2022-09-02T05:54:45.159Z,17.90
2022-09-02T05:57:19.229Z,17.90
2022-09-02T06:00:17.334Z,17.90
2022-09-02T06:02:55.582Z,17.90
2022-09-02T06:05:31.483Z,17.90
2022-09-02T06:08:08.092Z,17.90
2022-09-02T06:10:43.214Z,17.90
2022-09-02T06:13:15.911Z,18.00
2022-09-02T06:15:45.370Z,17.90
2022-09-02T06:18:15.608Z,17.90
2022-09-02T06:20:48.617Z,17.90
2022-09-02T06:23:18.390Z,17.90
2022-09-02T06:25:49.387Z,17.90
2022-09-02T06:28:19.704Z,18.00
2022-09-02T06:30:50.565Z,18.00
2022-09-02T06:33:23.963Z,18.00
2022-09-02T06:35:53.372Z,18.00
2022-09-02T06:38:21.966Z,18.00
2022-09-02T06:40:54.762Z,18.00
2022-09-02T06:43:42.226Z,18.00
2022-09-02T06:46:23.296Z,18.00
2022-09-02T06:48:54.616Z,18.00
2022-09-02T06:51:27.326Z,18.00
2022-09-02T06:53:57.018Z,18.00
2022-09-02T06:56:28.898Z,18.00
2022-09-02T06:58:58.922Z,18.00
2022-09-02T07:01:43.495Z,18.00
2022-09-02T07:04:30.480Z,18.00
2022-09-02T07:06:59.316Z,18.00
2022-09-02T07:09:32.153Z,17.90
2022-09-02T07:12:08.357Z,18.00
2022-09-02T07:14:45.061Z,18.00
2022-09-02T07:17:17.712Z,18.00
2022-09-02T07:19:49.872Z,18.00
2022-09-02T07:22:18.783Z,18.00
2022-09-02T07:24:48.266Z,18.00
2022-09-02T07:27:16.752Z,18.00
2022-09-02T07:29:47.853Z,17.90
2022-09-02T07:32:17.089Z,18.00
2022-09-02T07:34:45.760Z,18.00
2022-09-02T07:37:15.119Z,18.00
2022-09-02T07:39:46.175Z,18.00
2022-09-02T07:42:17.683Z,18.00
2022-09-02T07:44:47.511Z,18.00
2022-09-02T07:47:16.751Z,18.00
2022-09-02T07:52:36.156Z,18.00
2022-09-02T07:55:04.646Z,18.00
2022-09-02T07:57:33.892Z,18.00
2022-09-02T08:00:05.488Z,18.00
2022-09-02T08:02:42.695Z,18.00
2022-09-02T08:05:15.122Z,18.00
2022-09-02T08:07:43.700Z,18.00
2022-09-02T08:10:13.409Z,18.10
2022-09-02T08:12:44.124Z,18.00
2022-09-02T08:15:15.510Z,18.00
2022-09-02T08:17:44.366Z,18.00
2022-09-02T08:20:14.150Z,18.10
2022-09-02T08:22:42.704Z,18.00
2022-09-02T08:25:11.788Z,18.00
2022-09-02T08:27:41.268Z,18.00
2022-09-02T08:30:10.995Z,18.00
2022-09-02T08:32:41.268Z,18.00
2022-09-02T08:35:11.370Z,18.00
2022-09-02T08:37:39.998Z,18.10
2022-09-02T08:40:14.314Z,18.00
2022-09-02T08:42:49.711Z,18.00
2022-09-02T08:45:25.500Z,18.10
2022-09-02T08:48:05.113Z,18.00
2022-09-02T08:50:35.045Z,18.00
2022-09-02T08:53:10.904Z,18.00
2022-09-02T08:55:46.930Z,18.00
2022-09-02T08:58:19.904Z,18.00
2022-09-02T09:00:55.947Z,18.00
2022-09-02T09:03:30.027Z,18.00
2022-09-02T09:06:05.675Z,18.00
2022-09-02T09:08:42.906Z,18.00
2022-09-02T09:11:22.117Z,18.00
2022-09-02T09:14:14.033Z,18.00
2022-09-02T09:16:43.873Z,18.00
2022-09-02T09:19:16.535Z,18.00
2022-09-02T09:21:45.500Z,18.00
2022-09-02T09:24:33.725Z,18.00
2022-09-02T09:27:03.755Z,18.00
2022-09-02T09:29:33.789Z,18.00
2022-09-02T09:32:02.650Z,18.00
2022-09-02T09:35:07.163Z,18.00
2022-09-02T09:37:38.359Z,18.00
2022-09-02T09:40:31.962Z,18.10
2022-09-02T09:43:15.807Z,18.10
2022-09-02T09:45:47.301Z,18.00
2022-09-02T09:48:22.909Z,18.00
2022-09-02T09:51:12.958Z,18.00
2022-09-02T09:53:41.509Z,18.00
2022-09-02T09:56:25.503Z,18.10
2022-09-02T09:58:53.918Z,18.00
2022-09-02T10:01:24.363Z,18.10
2022-09-02T10:03:54.798Z,18.10
2022-09-02T10:06:26.359Z,18.10
2022-09-02T10:08:56.876Z,18.00
2022-09-02T10:11:27.367Z,18.00
2022-09-02T10:14:00.868Z,18.00
2022-09-02T10:16:42.419Z,18.00
2022-09-02T10:19:17.405Z,18.00
2022-09-02T10:22:03.127Z,18.00
2022-09-02T10:24:51.324Z,18.00
2022-09-02T10:27:36.995Z,18.00
2022-09-02T10:30:08.108Z,18.10
2022-09-02T10:32:56.719Z,18.10
2022-09-02T10:35:37.413Z,18.10
2022-09-02T10:38:23.453Z,18.10
2022-09-02T10:40:59.192Z,18.10
2022-09-02T10:43:42.086Z,18.10
2022-09-02T10:46:11.525Z,18.00
2022-09-02T10:48:50.283Z,18.00
2022-09-02T10:51:29.013Z,18.00
2022-09-02T10:54:14.411Z,18.00
2022-09-02T10:56:50.676Z,18.10
2022-09-02T10:59:23.680Z,18.10
2022-09-02T11:01:56.224Z,18.00
2022-09-02T11:04:37.250Z,18.00
2022-09-02T11:07:07.132Z,18.00
2022-09-02T11:09:40.212Z,18.00
2022-09-02T11:12:16.013Z,18.10
2022-09-02T11:14:56.395Z,18.10
2022-09-02T11:17:27.793Z,18.10
2022-09-02T11:20:02.170Z,18.10
2022-09-02T11:22:40.053Z,18.00
2022-09-02T11:25:17.269Z,18.00
2022-09-02T11:27:49.055Z,18.00
2022-09-02T11:30:21.024Z,18.10
2022-09-02T11:32:54.818Z,18.10
2022-09-02T11:35:27.522Z,18.00
2022-09-02T11:38:02.702Z,18.00
2022-09-02T11:40:40.082Z,18.00
2022-09-02T11:43:29.152Z,18.10
2022-09-02T11:46:28.895Z,18.10
2022-09-02T11:49:38.489Z,18.10
2022-09-02T11:52:27.090Z,18.10
2022-09-02T11:55:06.651Z,18.10
2022-09-02T11:57:41.353Z,18.10
2022-09-02T12:00:15.043Z,18.10
2022-09-02T12:02:46.948Z,18.10
2022-09-02T12:05:46.431Z,18.10
2022-09-02T12:08:53.889Z,18.10
2022-09-02T12:11:53.197Z,18.10
2022-09-02T12:15:07.593Z,18.00
2022-09-02T12:17:57.453Z,18.10
2022-09-02T12:21:06.260Z,18.10
2022-09-02T12:24:08.564Z,18.10
2022-09-02T12:26:55.287Z,18.20
2022-09-02T12:29:33.970Z,18.10
2022-09-02T12:32:02.818Z,18.10
2022-09-02T12:35:08.407Z,18.10
2022-09-02T12:37:55.187Z,18.10
2022-09-02T12:40:32.125Z,18.10
2022-09-02T12:43:05.800Z,18.10
2022-09-02T12:45:35.210Z,18.10
2022-09-02T12:48:10.591Z,18.10
2022-09-02T12:50:56.071Z,18.10
2022-09-02T12:53:43.564Z,18.10
2022-09-02T12:56:22.688Z,18.10
2022-09-02T12:58:53.176Z,18.10
2022-09-02T13:01:31.070Z,18.10
2022-09-02T13:04:35.090Z,18.10
2022-09-02T13:07:42.782Z,18.10
2022-09-02T13:10:51.631Z,18.00
2022-09-02T13:13:49.027Z,18.10
2022-09-02T13:16:23.123Z,18.10
2022-09-02T13:19:16.568Z,18.10
2022-09-02T13:22:14.545Z,18.10
2022-09-02T13:25:13.238Z,18.10
2022-09-02T13:28:07.869Z,18.10
2022-09-02T13:31:05.070Z,18.10
2022-09-02T13:33:34.234Z,18.10
2022-09-02T13:36:02.741Z,18.10
2022-09-02T13:38:32.905Z,18.10
2022-09-02T13:41:02.652Z,18.10
2022-09-02T13:43:31.148Z,18.10
2022-09-02T13:46:02.664Z,18.10
2022-09-02T13:48:34.193Z,18.10
2022-09-02T13:51:13.029Z,18.10
2022-09-02T13:53:53.852Z,18.10
2022-09-02T13:56:33.734Z,18.10
2022-09-02T13:59:02.026Z,18.10
2022-09-02T14:01:33.056Z,18.10
2022-09-02T14:06:41.289Z,18.10
2022-09-02T14:09:20.399Z,18.10
2022-09-02T14:11:51.127Z,18.10
2022-09-02T14:14:24.377Z,18.10
2022-09-02T14:16:53.364Z,18.10
2022-09-02T14:19:26.521Z,18.10
2022-09-02T14:21:57.411Z,18.10
2022-09-02T14:24:28.417Z,18.10
2022-09-02T14:26:59.457Z,18.10
2022-09-02T14:29:29.837Z,18.10
2022-09-02T14:32:12.449Z,18.10
2022-09-02T14:34:43.020Z,18.20
2022-09-02T14:37:25.586Z,18.10
2022-09-02T14:40:11.657Z,18.10
2022-09-02T14:42:55.023Z,18.20
2022-09-02T14:45:28.423Z,18.10
2022-09-02T14:47:59.788Z,18.20
2022-09-02T14:50:31.388Z,18.10
2022-09-02T14:53:06.185Z,18.10
2022-09-02T14:55:48.149Z,18.20
2022-09-02T14:58:18.587Z,18.20
2022-09-02T15:00:48.744Z,18.20
2022-09-02T15:03:17.670Z,18.20
2022-09-02T15:05:46.542Z,18.20
2022-09-02T15:08:15.695Z,18.10
2022-09-02T15:10:45.152Z,18.10
2022-09-02T15:13:15.939Z,18.10
2022-09-02T15:15:46.056Z,18.10
2022-09-02T15:18:16.078Z,18.10
2022-09-02T15:20:44.314Z,18.10
2022-09-02T15:23:12.742Z,18.10
2022-09-02T15:25:41.690Z,18.10
2022-09-02T15:28:11.219Z,18.10
2022-09-02T15:30:39.980Z,18.10
2022-09-02T15:33:17.380Z,18.20
2022-09-02T15:35:46.819Z,18.20
2022-09-02T15:38:15.157Z,18.20
2022-09-02T15:40:44.185Z,18.20
2022-09-02T15:43:12.410Z,18.00
2022-09-02T15:45:47.137Z,18.20
2022-09-02T15:48:16.975Z,18.10
2022-09-02T15:50:46.627Z,18.10
2022-09-02T15:53:16.010Z,18.10
2022-09-02T15:55:44.516Z,18.10
2022-09-02T15:58:12.752Z,18.10
2022-09-02T16:00:43.960Z,18.10
2022-09-02T16:03:12.439Z,18.20
2022-09-02T16:05:43.368Z,18.20
2022-09-02T16:08:11.729Z,18.20
2022-09-02T16:10:40.418Z,18.20
2022-09-02T16:13:08.688Z,18.10
2022-09-02T16:15:36.914Z,18.10
2022-09-02T16:18:05.374Z,18.20
2022-09-02T16:20:33.550Z,18.20
2022-09-02T16:23:03.442Z,18.10
2022-09-02T16:25:31.747Z,18.10
2022-09-02T16:28:00.018Z,18.20
2022-09-02T16:30:29.973Z,18.20
2022-09-02T16:32:58.508Z,18.20
2022-09-02T16:35:26.858Z,18.20
2022-09-02T16:37:57.482Z,18.20
2022-09-02T16:40:27.300Z,18.20
2022-09-02T16:42:55.543Z,18.20
2022-09-02T16:45:23.798Z,18.20
2022-09-02T16:47:52.108Z,18.20
2022-09-02T16:50:20.313Z,18.20
2022-09-02T16:52:48.764Z,18.20
2022-09-02T16:55:18.714Z,18.20
2022-09-02T16:57:48.464Z,18.20
2022-09-02T17:00:17.903Z,18.20
2022-09-02T17:02:46.660Z,18.20
2022-09-02T17:05:17.442Z,18.20
2022-09-02T17:07:46.791Z,18.20
2022-09-02T17:10:15.067Z,18.20
2022-09-02T17:12:43.510Z,18.20
2022-09-02T17:15:13.495Z,18.20
2022-09-02T17:17:42.368Z,18.20
2022-09-02T17:20:13.140Z,18.20
2022-09-02T17:22:41.762Z,18.20
2022-09-02T17:25:10.594Z,18.30
2022-09-02T17:27:39.355Z,18.20
2022-09-02T17:30:10.903Z,18.20
2022-09-02T17:32:41.158Z,18.20
2022-09-02T17:35:11.338Z,18.20
2022-09-02T17:37:40.261Z,18.20
2022-09-02T17:40:33.154Z,18.20
2022-09-02T17:43:00.527Z,18.20
2022-09-02T17:45:28.770Z,18.20
2022-09-02T17:48:08.882Z,18.20
2022-09-02T17:50:46.780Z,18.20
2022-09-02T17:53:15.063Z,18.20
2022-09-02T17:55:43.848Z,18.20
2022-09-02T17:58:19.358Z,18.20
2022-09-02T18:00:50.286Z,18.20
2022-09-02T18:03:36.774Z,18.20
2022-09-02T18:06:12.449Z,18.20
2022-09-02T18:08:49.634Z,18.20
2022-09-02T18:11:18.066Z,18.20
2022-09-02T18:13:57.755Z,18.20
2022-09-02T18:16:36.851Z,18.30
2022-09-02T18:19:19.882Z,18.20
2022-09-02T18:22:04.527Z,18.20
2022-09-02T18:24:58.243Z,18.20
2022-09-02T18:27:40.754Z,18.20
2022-09-02T18:30:11.835Z,18.30
2022-09-02T18:32:58.644Z,18.30
2022-09-02T18:35:38.621Z,18.30
2022-09-02T18:38:14.852Z,18.30
2022-09-02T18:40:50.097Z,18.30
2022-09-02T18:43:26.155Z,18.30
2022-09-02T18:45:57.618Z,18.20
2022-09-02T18:48:30.684Z,18.20
2022-09-02T18:51:06.050Z,18.20
2022-09-02T18:53:40.507Z,18.20
2022-09-02T18:56:11.524Z,18.20
2022-09-02T18:58:45.212Z,18.20
2022-09-02T19:01:22.074Z,18.20
2022-09-02T19:03:50.713Z,18.30
2022-09-02T19:06:22.004Z,18.30
2022-09-02T19:08:55.290Z,18.30
2022-09-02T19:11:25.757Z,18.30
2022-09-02T19:13:56.643Z,18.20
2022-09-02T19:16:27.346Z,18.20
2022-09-02T19:18:56.271Z,18.20
2022-09-02T19:21:35.332Z,18.20
2022-09-02T19:24:05.599Z,18.20
2022-09-02T19:26:34.594Z,18.20
2022-09-02T19:29:04.259Z,18.20
2022-09-02T19:31:32.965Z,18.20
2022-09-02T19:34:03.813Z,18.30
2022-09-02T19:36:34.387Z,18.20
2022-09-02T19:39:02.630Z,18.20
2022-09-02T19:41:30.842Z,18.20
2022-09-02T19:44:00.111Z,18.20
2022-09-02T19:47:07.018Z,18.20
2022-09-02T19:49:17.655Z,18.30
2022-09-02T19:51:47.499Z,18.20
2022-09-02T19:54:18.358Z,18.20
2022-09-02T19:56:46.802Z,18.20
2022-09-02T19:59:15.059Z,18.20
2022-09-02T20:01:43.374Z,18.20
2022-09-02T20:04:11.851Z,18.20
2022-09-02T20:06:40.582Z,18.20
2022-09-02T20:09:10.228Z,18.20
2022-09-02T20:11:41.042Z,18.20
2022-09-02T20:14:09.654Z,18.20
2022-09-02T20:16:38.050Z,18.20
2022-09-02T20:19:06.475Z,18.20
2022-09-02T20:21:43.181Z,18.20
2022-09-02T20:24:16.370Z,18.20
2022-09-02T20:26:54.058Z,18.20
2022-09-02T20:29:38.052Z,18.30
2022-09-02T20:36:06.391Z,18.20
2022-09-02T20:39:18.153Z,18.20
2022-09-02T20:41:56.943Z,18.20
2022-09-02T20:44:52.073Z,18.20
2022-09-02T20:47:45.632Z,18.20
2022-09-02T20:50:46.411Z,18.20
2022-09-02T20:53:32.649Z,18.20
2022-09-02T20:56:05.356Z,18.20
2022-09-02T20:58:43.651Z,18.20
2022-09-02T21:01:23.018Z,18.20
2022-09-02T21:03:58.747Z,18.20
2022-09-02T21:06:31.674Z,18.20
2022-09-02T21:09:06.000Z,18.30
2022-09-02T21:11:47.650Z,18.30
2022-09-02T21:14:21.879Z,18.30
2022-09-02T21:16:55.317Z,18.30
2022-09-02T21:19:30.370Z,18.20
2022-09-02T21:22:04.474Z,18.20
2022-09-02T21:24:38.470Z,18.20
2022-09-02T21:27:15.112Z,18.20
2022-09-02T21:29:48.936Z,18.20
2022-09-02T21:32:23.871Z,18.10
2022-09-02T21:34:56.298Z,18.20
2022-09-02T21:37:26.474Z,18.20
2022-09-02T21:39:58.262Z,18.20
2022-09-02T21:42:33.818Z,18.10
2022-09-02T21:45:15.137Z,18.20
2022-09-02T21:47:52.380Z,18.20
2022-09-02T21:50:25.404Z,18.10
2022-09-02T21:53:04.472Z,18.30
2022-09-02T21:55:49.767Z,18.10
2022-09-02T21:58:40.063Z,18.10
2022-09-02T22:01:19.039Z,18.10
2022-09-02T22:06:23.835Z,18.10
2022-09-02T22:08:58.679Z,18.10
2022-09-02T22:11:34.308Z,18.10
2022-09-02T22:14:10.000Z,18.20
2022-09-02T22:16:50.556Z,18.10
2022-09-02T22:19:19.874Z,18.10
2022-09-02T22:21:50.593Z,18.10
2022-09-02T22:24:20.550Z,18.10
2022-09-02T22:26:53.091Z,18.00
2022-09-02T22:29:29.034Z,18.10
2022-09-02T22:32:01.497Z,18.10
2022-09-02T22:34:34.831Z,18.10
2022-09-02T22:37:07.839Z,18.10
2022-09-02T22:39:43.694Z,18.10
2022-09-02T22:42:21.340Z,18.10
2022-09-02T22:45:14.413Z,18.10
2022-09-02T22:48:11.990Z,18.10
2022-09-02T22:51:04.053Z,18.10
2022-09-02T22:53:32.525Z,18.10
2022-09-02T22:56:03.683Z,18.10
2022-09-02T22:58:51.990Z,18.00
2022-09-02T23:01:31.269Z,18.10
2022-09-02T23:04:19.687Z,18.10
2022-09-02T23:06:48.193Z,18.10
2022-09-02T23:09:18.545Z,18.10
2022-09-02T23:11:57.324Z,18.10
2022-09-02T23:14:35.607Z,18.10
2022-09-02T23:17:23.684Z,18.10
2022-09-02T23:20:06.233Z,18.10
2022-09-02T23:22:46.688Z,18.10
2022-09-02T23:25:33.510Z,18.10
2022-09-02T23:28:11.501Z,18.10
2022-09-02T23:30:52.414Z,18.10
2022-09-02T23:33:32.628Z,18.10
2022-09-02T23:36:12.767Z,18.10
2022-09-02T23:39:18.979Z,18.10
2022-09-02T23:41:47.827Z,18.10
2022-09-02T23:44:16.719Z,18.10
2022-09-02T23:46:52.974Z,18.10
2022-09-02T23:49:31.996Z,18.10
2022-09-02T23:52:09.750Z,18.10
2022-09-02T23:54:50.856Z,18.10
2022-09-02T23:57:40.511Z,18.10
